Time;durP1;ratioP1;P1;durP2;ratioP2;P2;SDS_P1;SDS_P2;PMS_P1;PMS_P2;Temp;Humidity;BMP_temperature;BMP_pressure;BME280_temperature;BME280_humidity;BME280_pressure;Samples;Min_cycle;Max_cycle;Signal;HPM_P1;HPM_P2
2022/11/10 05:01:48;;;;;;;18.53;9.50;;;11.90;99.90;;;;;;5424314;23;20908;-73
2022/11/10 05:04:14;;;;;;;15.07;8.73;;;11.90;99.90;;;;;;4988306;28;20525;-72
2022/11/10 05:06:41;;;;;;;18.00;9.07;;;11.80;99.90;;;;;;4988731;28;20461;-72
2022/11/10 05:09:08;;;;;;;13.90;8.63;;;11.80;99.90;;;;;;4988727;28;20459;-72
2022/11/10 05:11:35;;;;;;;12.60;8.33;;;11.80;99.90;;;;;;4988202;28;20479;-72
2022/11/10 05:14:01;;;;;;;22.37;7.60;;;11.80;99.90;;;;;;4988315;28;20554;-72
2022/11/10 05:16:28;;;;;;;12.97;7.13;;;11.70;99.90;;;;;;4988886;28;20460;-72
2022/11/10 05:18:57;;;;;;;13.33;7.10;;;11.70;99.90;;;;;;4988971;28;20463;-72
2022/11/10 05:21:23;;;;;;;9.80;7.67;;;11.60;99.90;;;;;;4987393;28;20483;-71
2022/11/10 05:23:50;;;;;;;12.63;8.00;;;11.60;99.90;;;;;;4988984;28;20455;-72
2022/11/10 05:26:18;;;;;;;13.43;8.90;;;11.50;99.90;;;;;;4988193;28;20459;-72
2022/11/10 05:28:46;;;;;;;12.40;8.47;;;11.50;99.90;;;;;;4988933;28;20471;-70
2022/11/10 05:31:13;;;;;;;15.77;9.20;;;11.50;99.90;;;;;;4986537;28;20538;-72
2022/11/10 05:33:40;;;;;;;12.20;8.43;;;11.40;99.90;;;;;;4988550;28;20495;-73
2022/11/10 05:36:09;;;;;;;11.20;8.23;;;11.40;99.90;;;;;;4987906;28;20467;-63
2022/11/10 05:38:36;;;;;;;10.97;7.10;;;11.30;99.90;;;;;;4988034;28;21195;-63
2022/11/10 05:41:03;;;;;;;12.70;6.77;;;11.20;99.90;;;;;;4988018;28;20467;-64
2022/11/10 05:43:30;;;;;;;11.20;6.63;;;11.10;99.90;;;;;;4987626;28;20459;-75
2022/11/10 05:45:57;;;;;;;13.23;6.60;;;11.00;99.90;;;;;;4988048;28;20463;-75
2022/11/10 05:48:24;;;;;;;19.70;6.80;;;11.00;99.90;;;;;;4988094;28;20975;-75
2022/11/10 05:50:50;;;;;;;12.87;7.10;;;11.00;99.90;;;;;;4987795;28;20483;-74
2022/11/10 05:53:19;;;;;;;14.30;6.93;;;10.90;99.90;;;;;;4987869;28;20488;-75
2022/11/10 05:55:45;;;;;;;11.33;7.00;;;10.90;99.90;;;;;;4987745;28;20994;-73
2022/11/10 05:58:12;;;;;;;8.50;6.57;;;10.90;99.90;;;;;;4988151;28;21015;-75
2022/11/10 06:00:39;;;;;;;14.23;7.70;;;10.90;99.90;;;;;;4987924;28;20494;-74
2022/11/10 06:03:08;;;;;;;10.53;7.33;;;10.80;99.90;;;;;;4988473;28;20440;-75
2022/11/10 06:05:36;;;;;;;8.60;6.30;;;10.80;99.90;;;;;;4987472;28;20464;-74
2022/11/10 06:08:04;;;;;;;11.53;7.83;;;10.80;99.90;;;;;;4988250;28;20463;-77
2022/11/10 06:10:33;;;;;;;15.40;7.90;;;10.70;99.90;;;;;;4987978;28;20471;-74
2022/11/10 06:13:00;;;;;;;13.30;7.33;;;10.70;99.90;;;;;;4988251;28;20499;-74
2022/11/10 06:15:28;;;;;;;12.90;7.47;;;10.70;99.90;;;;;;4987105;28;20678;-75
2022/11/10 06:17:55;;;;;;;10.93;7.00;;;10.70;99.90;;;;;;4988127;28;20463;-73
2022/11/10 06:20:22;;;;;;;9.77;6.70;;;10.60;99.90;;;;;;4988291;28;20472;-74
2022/11/10 06:23:01;;;;;;;11.97;6.80;;;10.60;99.90;;;;;;4988157;28;20470;-75
2022/11/10 06:25:29;;;;;;;10.43;6.47;;;10.60;99.90;;;;;;4987427;28;20633;-74
2022/11/10 06:27:57;;;;;;;18.87;7.30;;;10.50;99.90;;;;;;4987730;28;20463;-74
2022/11/10 06:30:25;;;;;;;8.97;7.40;;;10.50;99.90;;;;;;4986911;28;20964;-74
2022/11/10 06:32:52;;;;;;;12.60;6.33;;;10.50;99.90;;;;;;4987508;28;20494;-75
2022/11/10 06:35:19;;;;;;;11.23;8.80;;;10.50;99.90;;;;;;4986746;28;20463;-75
2022/11/10 06:37:46;;;;;;;16.50;10.00;;;10.50;99.90;;;;;;4987719;28;20459;-74
2022/11/10 06:40:13;;;;;;;12.43;8.00;;;10.50;99.90;;;;;;4987043;28;20470;-76
2022/11/10 06:42:40;;;;;;;12.70;8.50;;;10.50;99.90;;;;;;4987453;28;20455;-76
2022/11/10 06:45:09;;;;;;;12.17;8.30;;;10.50;99.90;;;;;;4986375;28;20459;-75
2022/11/10 06:47:36;;;;;;;17.13;8.67;;;10.50;99.90;;;;;;4985866;28;20463;-76
2022/11/10 06:50:03;;;;;;;11.80;8.67;;;10.50;99.90;;;;;;4986556;28;20468;-75
2022/11/10 06:52:30;;;;;;;18.93;9.50;;;10.50;99.90;;;;;;4986588;28;20854;-75
2022/11/10 06:54:57;;;;;;;12.57;8.93;;;10.40;99.90;;;;;;4986597;28;20894;-75
2022/11/10 06:57:24;;;;;;;17.23;8.73;;;10.40;99.90;;;;;;4986788;28;20459;-75
2022/11/10 06:59:51;;;;;;;12.93;8.80;;;10.40;99.90;;;;;;4986994;28;20466;-75
2022/11/10 07:02:19;;;;;;;13.10;9.17;;;10.40;99.90;;;;;;4987193;28;20499;-76
2022/11/10 07:04:46;;;;;;;13.20;8.87;;;10.40;99.90;;;;;;4986884;28;20470;-76
2022/11/10 07:07:13;;;;;;;9.93;8.37;;;10.50;99.90;;;;;;4987066;28;20464;-76
2022/11/10 07:09:40;;;;;;;10.53;8.00;;;10.40;99.90;;;;;;4987354;28;20514;-76
2022/11/10 07:12:07;;;;;;;12.00;8.70;;;10.40;99.90;;;;;;4987277;28;20480;-76
2022/11/10 07:14:33;;;;;;;11.20;8.30;;;10.30;99.90;;;;;;4986804;28;20506;-76
2022/11/10 07:17:00;;;;;;;14.77;9.07;;;10.30;99.90;;;;;;4988559;28;20463;-75
2022/11/10 07:19:28;;;;;;;11.50;8.33;;;10.30;99.90;;;;;;4987551;28;20517;-74
2022/11/10 07:21:55;;;;;;;13.30;8.47;;;10.30;99.90;;;;;;4988689;28;20478;-74
2022/11/10 07:24:22;;;;;;;11.00;8.37;;;10.30;99.90;;;;;;4987825;28;20452;-75
2022/11/10 07:26:49;;;;;;;11.07;9.60;;;10.40;99.90;;;;;;4988290;28;20455;-77
2022/11/10 07:29:15;;;;;;;13.50;9.57;;;10.40;99.90;;;;;;4988833;28;20463;-75
2022/11/10 07:31:42;;;;;;;14.43;11.00;;;10.40;99.90;;;;;;4988561;28;20487;-75
2022/11/10 07:34:09;;;;;;;17.90;10.30;;;10.50;99.90;;;;;;4987360;28;20502;-75
2022/11/10 07:36:38;;;;;;;14.30;10.87;;;10.60;99.90;;;;;;4988322;28;20471;-75
2022/11/10 07:39:04;;;;;;;18.93;11.70;;;10.60;99.90;;;;;;4988381;28;20462;-75
2022/11/10 07:41:31;;;;;;;20.43;11.03;;;10.60;99.90;;;;;;4988062;28;20488;-75
2022/11/10 07:43:58;;;;;;;13.50;8.83;;;10.70;99.90;;;;;;4987142;28;20460;-76
2022/11/10 07:46:25;;;;;;;12.83;9.57;;;10.70;99.90;;;;;;4987827;28;21094;-75
2022/11/10 07:48:51;;;;;;;12.50;9.70;;;10.70;99.90;;;;;;4988344;28;20466;-75
2022/11/10 07:51:18;;;;;;;17.20;10.50;;;10.80;99.90;;;;;;4987671;28;20484;-75
2022/11/10 07:53:46;;;;;;;14.03;10.00;;;10.80;99.90;;;;;;4987993;28;20502;-75
2022/11/10 07:56:14;;;;;;;14.30;9.27;;;10.90;99.90;;;;;;4987157;28;20956;-75
2022/11/10 07:58:40;;;;;;;11.33;8.93;;;10.90;99.90;;;;;;4987962;28;20467;-75
2022/11/10 08:01:07;;;;;;;17.83;9.50;;;10.90;99.90;;;;;;4987106;28;20487;-76
2022/11/10 08:03:34;;;;;;;12.37;10.27;;;11.00;99.90;;;;;;4988010;28;20456;-75
2022/11/10 08:06:01;;;;;;;18.40;9.40;;;11.00;99.90;;;;;;4989637;28;20481;-74
2022/11/10 08:08:28;;;;;;;16.73;9.27;;;11.00;99.90;;;;;;4991641;28;20466;-76
2022/11/10 08:10:58;;;;;;;11.00;9.23;;;11.00;99.90;;;;;;4991532;28;20545;-76
2022/11/10 08:13:25;;;;;;;14.33;8.50;;;10.90;99.90;;;;;;4991345;28;20502;-76
2022/11/10 08:15:52;;;;;;;17.97;9.40;;;10.90;99.90;;;;;;4990876;28;20947;-75
2022/11/10 08:18:21;;;;;;;16.17;10.03;;;10.90;99.90;;;;;;4991482;28;20463;-75
2022/11/10 08:20:48;;;;;;;17.70;9.63;;;10.90;99.90;;;;;;4990985;28;20483;-76
2022/11/10 08:23:16;;;;;;;20.10;9.93;;;11.00;99.90;;;;;;4991318;28;20460;-75
2022/11/10 08:25:43;;;;;;;12.03;8.73;;;11.00;99.90;;;;;;4990321;28;20919;-75
2022/11/10 08:28:13;;;;;;;18.37;9.23;;;11.00;99.90;;;;;;4991063;28;20547;-75
2022/11/10 08:30:42;;;;;;;11.80;8.40;;;11.00;99.90;;;;;;4991220;28;20479;-75
2022/11/10 08:33:11;;;;;;;14.80;8.57;;;11.10;99.90;;;;;;4991125;28;20495;-75
2022/11/10 08:35:39;;;;;;;14.27;8.17;;;11.20;99.90;;;;;;4990374;28;20451;-75
2022/11/10 08:38:08;;;;;;;20.77;7.93;;;11.20;99.90;;;;;;4991281;28;20458;-75
2022/11/10 08:40:35;;;;;;;11.87;8.90;;;11.20;99.90;;;;;;4990373;28;20988;-75
2022/11/10 08:43:06;;;;;;;12.20;7.93;;;11.30;99.90;;;;;;4990772;28;20463;-75
2022/11/10 08:45:36;;;;;;;16.47;8.33;;;11.40;99.90;;;;;;4990158;28;20812;-76
2022/11/10 08:48:05;;;;;;;13.00;8.00;;;11.60;99.90;;;;;;4990473;28;20464;-75
2022/11/10 08:50:32;;;;;;;20.23;9.13;;;11.70;99.90;;;;;;4990261;28;20482;-75
2022/11/10 08:53:02;;;;;;;15.80;8.17;;;11.80;99.90;;;;;;4989388;28;20459;-77
2022/11/10 08:55:29;;;;;;;19.97;7.83;;;11.80;99.90;;;;;;4989580;28;20517;-75
2022/11/10 08:57:59;;;;;;;14.10;7.77;;;11.80;99.90;;;;;;4990645;28;20465;-75
2022/11/10 09:00:27;;;;;;;12.67;7.47;;;11.80;99.90;;;;;;4990410;28;20459;-75
2022/11/10 09:02:56;;;;;;;15.90;7.70;;;11.90;99.90;;;;;;4990746;28;20451;-75
2022/11/10 09:05:23;;;;;;;12.30;6.93;;;11.90;99.90;;;;;;4989648;28;20466;-75
2022/11/10 09:07:50;;;;;;;14.33;7.00;;;11.80;99.90;;;;;;4990223;28;20550;-75
2022/11/10 09:10:17;;;;;;;7.00;5.63;;;11.80;99.90;;;;;;4990112;28;20467;-76
2022/11/10 09:12:44;;;;;;;13.60;6.30;;;11.90;99.90;;;;;;4989844;28;20492;-76
2022/11/10 09:15:12;;;;;;;10.93;6.10;;;11.90;99.90;;;;;;4989952;28;20506;-75
2022/11/10 09:17:40;;;;;;;7.43;5.87;;;11.90;99.90;;;;;;4988735;28;20521;-75
2022/11/10 09:20:11;;;;;;;9.27;6.10;;;12.00;99.90;;;;;;4990301;28;20467;-76
2022/11/10 09:22:38;;;;;;;10.53;6.67;;;12.10;99.90;;;;;;4990365;28;20461;-75
2022/11/10 09:25:06;;;;;;;18.70;7.10;;;12.10;99.90;;;;;;4989144;28;20455;-75
2022/11/10 09:27:36;;;;;;;8.80;5.67;;;12.10;99.90;;;;;;4989944;28;20903;-75
2022/11/10 09:30:03;;;;;;;11.10;6.40;;;12.20;99.90;;;;;;4990389;28;20542;-75
2022/11/10 09:32:31;;;;;;;11.10;6.10;;;12.20;99.90;;;;;;4989314;28;20490;-75
2022/11/10 09:34:58;;;;;;;8.73;6.07;;;12.40;99.90;;;;;;4988486;28;20501;-75
2022/11/10 09:37:26;;;;;;;9.63;6.40;;;12.40;99.90;;;;;;4989397;28;20564;-78
2022/11/10 09:39:53;;;;;;;10.70;6.20;;;12.50;99.90;;;;;;4989819;28;20510;-76
2022/11/10 09:42:27;;;;;;;7.00;4.80;;;12.60;99.90;;;;;;4989364;28;21362;-76
2022/11/10 09:44:59;;;;;;;7.63;5.20;;;12.70;99.90;;;;;;4988721;28;20490;-76
2022/11/10 09:47:33;;;;;;;11.17;6.00;;;12.80;99.90;;;;;;4988938;28;20440;-75
2022/11/10 09:50:02;;;;;;;11.30;6.03;;;12.90;99.90;;;;;;4989540;28;20479;-76
2022/11/10 09:52:34;;;;;;;12.83;5.83;;;12.90;99.90;;;;;;4989342;28;20511;-76
2022/11/10 09:55:08;;;;;;;8.50;5.43;;;13.10;99.90;;;;;;4988774;28;20546;-76
2022/11/10 09:57:36;;;;;;;10.13;5.97;;;13.20;99.90;;;;;;4989177;28;20470;-76
2022/11/10 10:00:04;;;;;;;10.80;5.23;;;13.40;99.90;;;;;;4988977;28;20964;-76
2022/11/10 10:02:36;;;;;;;9.70;5.20;;;13.50;99.90;;;;;;4989015;28;20498;-76
2022/11/10 10:05:32;;;;;;;6.80;4.17;;;13.50;99.90;;;;;;4988487;28;20467;-77
2022/11/10 10:08:04;;;;;;;10.37;5.07;;;13.60;99.90;;;;;;4989051;28;20475;-76
2022/11/10 10:10:39;;;;;;;13.63;5.07;;;13.80;99.90;;;;;;4988981;28;20603;-76
2022/11/10 10:13:27;;;;;;;8.20;5.20;;;13.80;99.90;;;;;;4988967;28;20545;-78
2022/11/10 10:16:06;;;;;;;6.43;3.67;;;14.00;99.90;;;;;;4988390;28;20456;-76
2022/11/10 10:18:40;;;;;;;9.67;3.53;;;14.20;99.90;;;;;;4988688;28;20597;-76
2022/11/10 10:21:35;;;;;;;9.03;3.10;;;14.20;99.90;;;;;;4989120;28;20482;-76
2022/11/10 10:24:04;;;;;;;7.10;2.87;;;14.30;99.90;;;;;;4988136;28;20966;-78
2022/11/10 10:26:33;;;;;;;7.10;2.97;;;15.00;99.90;;;;;;4969222;28;20532;-76
2022/11/10 10:29:10;;;;;;;6.43;2.60;;;15.20;99.90;;;;;;4967842;28;20551;-77
2022/11/10 10:31:42;;;;;;;10.00;2.60;;;15.20;99.90;;;;;;4969088;28;20488;-75
2022/11/10 10:34:13;;;;;;;5.30;2.30;;;15.10;99.90;;;;;;4968244;28;20579;-78
2022/11/10 10:36:40;;;;;;;11.47;2.90;;;15.00;99.90;;;;;;4969019;28;20441;-76
2022/11/10 10:39:13;;;;;;;9.10;2.40;;;15.10;99.90;;;;;;4969329;28;20468;-76
2022/11/10 10:41:44;;;;;;;4.30;2.57;;;15.20;99.90;;;;;;4968694;28;21059;-77
2022/11/10 10:44:13;;;;;;;5.27;2.87;;;15.30;99.90;;;;;;4968996;28;20471;-76
2022/11/10 10:46:46;;;;;;;5.57;2.60;;;15.30;99.90;;;;;;4969390;28;20877;-76
2022/11/10 10:49:16;;;;;;;7.00;2.83;;;15.20;99.90;;;;;;4969376;28;20472;-77
2022/11/10 10:51:44;;;;;;;4.00;2.30;;;15.30;99.90;;;;;;4969105;28;20491;-76
2022/11/10 10:54:27;;;;;;;6.47;2.87;;;15.30;99.90;;;;;;4968243;28;20631;-76
2022/11/10 10:57:13;;;;;;;7.33;2.83;;;15.40;99.90;;;;;;4967711;28;20548;-76
2022/11/10 10:59:40;;;;;;;8.97;2.70;;;15.50;99.90;;;;;;4969200;28;20451;-77
2022/11/10 11:02:22;;;;;;;8.20;3.90;;;16.10;99.90;;;;;;4968461;28;20483;-76
2022/11/10 11:04:50;;;;;;;7.17;2.80;;;16.30;99.90;;;;;;4968075;28;20461;-76
2022/11/10 11:07:22;;;;;;;6.00;2.60;;;16.30;99.90;;;;;;4968438;28;20555;-76
2022/11/10 11:09:50;;;;;;;4.60;2.40;;;16.40;99.90;;;;;;4968550;28;20503;-77
2022/11/10 11:12:27;;;;;;;6.00;2.80;;;16.60;99.90;;;;;;4968783;28;20477;-77
2022/11/10 11:15:13;;;;;;;7.97;2.70;;;16.60;99.90;;;;;;4967758;28;20587;-77
2022/11/10 11:17:40;;;;;;;9.77;3.20;;;16.60;99.90;;;;;;4968424;28;20853;-77
2022/11/10 11:20:14;;;;;;;7.40;2.90;;;16.60;99.90;;;;;;4968426;28;20505;-78
2022/11/10 11:22:51;;;;;;;9.00;3.63;;;16.60;99.90;;;;;;4967768;28;20794;-77
2022/11/10 11:25:26;;;;;;;6.67;2.50;;;16.80;99.90;;;;;;4967340;28;20528;-78
2022/11/10 11:28:03;;;;;;;5.40;2.43;;;16.80;99.90;;;;;;4968172;28;20484;-76
2022/11/10 11:30:43;;;;;;;4.83;2.57;;;16.90;99.90;;;;;;4967839;28;21177;-76
2022/11/10 11:33:27;;;;;;;8.90;2.90;;;17.00;99.90;;;;;;4968236;28;20487;-77
2022/11/10 11:36:00;;;;;;;5.83;3.00;;;16.80;99.90;;;;;;4966581;28;20500;-77
2022/11/10 11:38:32;;;;;;;8.13;2.57;;;16.90;99.90;;;;;;4968452;28;20929;-77
2022/11/10 11:41:14;;;;;;;5.63;2.60;;;17.10;99.90;;;;;;4967695;28;20484;-77
2022/11/10 11:44:05;;;;;;;9.17;2.97;;;17.20;99.90;;;;;;4968051;28;20550;-77
2022/11/10 11:46:43;;;;;;;7.30;2.23;;;17.50;99.90;;;;;;4968258;28;20457;-77
2022/11/10 11:49:36;;;;;;;12.80;2.70;;;17.70;99.90;;;;;;4968375;28;20941;-77
2022/11/10 11:52:11;;;;;;;5.73;2.73;;;17.70;99.90;;;;;;4968128;28;20485;-76
2022/11/10 11:54:56;;;;;;;4.10;2.10;;;17.70;99.90;;;;;;4967070;28;20599;-76
2022/11/10 11:57:38;;;;;;;3.47;1.90;;;17.80;99.90;;;;;;4967494;28;20487;-77
2022/11/10 12:00:10;;;;;;;4.73;2.43;;;18.10;99.90;;;;;;4967275;28;20510;-77
2022/11/10 12:03:22;;;;;;;4.43;2.23;;;18.00;99.90;;;;;;4968266;28;20492;-77
2022/11/10 12:06:01;;;;;;;9.10;3.00;;;17.60;99.90;;;;;;4947263;28;20548;-77
2022/11/10 12:08:40;;;;;;;6.43;2.20;;;17.50;99.90;;;;;;4968467;28;20440;-77
2022/11/10 12:11:14;;;;;;;4.03;2.07;;;17.50;99.90;;;;;;4967874;28;20993;-76
2022/11/10 12:13:55;;;;;;;6.03;1.90;;;17.50;99.90;;;;;;4967751;28;20453;-77
2022/11/10 12:16:28;;;;;;;5.17;1.60;;;17.90;99.90;;;;;;4967815;28;20511;-77
2022/11/10 12:19:12;;;;;;;4.83;1.80;;;17.80;99.90;;;;;;4967959;28;20507;-77
2022/11/10 12:21:49;;;;;;;5.47;1.90;;;17.70;99.90;;;;;;4967603;28;20511;-78
2022/11/10 12:24:36;;;;;;;2.60;1.40;;;17.70;99.90;;;;;;4967092;28;20957;-77
2022/11/10 12:27:09;;;;;;;3.73;1.20;;;17.90;99.90;;;;;;4967639;28;20460;-77
2022/11/10 12:29:49;;;;;;;4.20;1.70;;;18.20;99.90;;;;;;4967310;28;20452;-75
2022/11/10 12:32:20;;;;;;;3.00;1.23;;;18.60;99.90;;;;;;4966550;28;20928;-76
2022/11/10 12:34:53;;;;;;;6.10;2.00;;;18.50;99.90;;;;;;4966384;28;20564;-75
2022/11/10 12:37:31;;;;;;;6.30;2.00;;;18.20;99.90;;;;;;4966493;28;20480;-75
2022/11/10 12:40:05;;;;;;;5.47;1.87;;;18.00;99.90;;;;;;4968276;28;20456;-76
2022/11/10 12:42:38;;;;;;;7.17;1.60;;;18.00;99.90;;;;;;4968226;28;20542;-77
2022/11/10 12:45:16;;;;;;;8.30;2.10;;;18.20;99.90;;;;;;4967058;28;20937;-77
2022/11/10 12:47:44;;;;;;;4.17;1.60;;;18.30;99.90;;;;;;4967917;28;20460;-77
2022/11/10 12:50:25;;;;;;;6.70;1.70;;;18.20;99.90;;;;;;4967661;28;21276;-78
2022/11/10 12:52:55;;;;;;;5.67;2.10;;;18.10;99.90;;;;;;4970712;28;20960;-78
2022/11/10 12:55:31;;;;;;;7.63;2.03;;;17.90;99.90;;;;;;4970110;28;20523;-78
2022/11/10 12:58:11;;;;;;;7.33;1.90;;;17.80;99.90;;;;;;4971567;28;20982;-78
2022/11/10 13:00:46;;;;;;;2.30;1.50;;;17.70;99.90;;;;;;4971012;28;20493;-78
2022/11/10 13:03:26;;;;;;;6.83;1.67;;;17.70;99.90;;;;;;4971372;28;20547;-78
2022/11/10 13:05:58;;;;;;;4.07;1.30;;;17.60;99.90;;;;;;4971484;28;20444;-78
2022/11/10 13:08:32;;;;;;;1.97;1.27;;;17.40;99.90;;;;;;4971647;28;20456;-78
2022/11/10 13:11:03;;;;;;;6.10;1.60;;;17.30;99.90;;;;;;4968488;28;20515;-77
2022/11/10 13:13:40;;;;;;;9.27;1.70;;;17.20;99.90;;;;;;4970175;28;21161;-77
2022/11/10 13:16:10;;;;;;;4.10;1.50;;;17.30;99.90;;;;;;4969192;28;20558;-77
2022/11/10 13:18:52;;;;;;;4.20;1.30;;;17.40;99.90;;;;;;4969514;28;20467;-76
2022/11/10 13:22:06;;;;;;;3.37;1.10;;;17.40;99.90;;;;;;4968364;28;20492;-76
2022/11/10 13:24:34;;;;;;;3.67;1.43;;;17.20;99.90;;;;;;4987812;28;20455;-76
2022/11/10 13:27:02;;;;;;;4.37;1.50;;;17.10;99.90;;;;;;4989109;28;20466;-76
2022/11/10 13:29:33;;;;;;;5.13;1.50;;;17.10;99.90;;;;;;4989246;28;21206;-77
2022/11/10 13:32:26;;;;;;;3.83;1.40;;;17.10;99.90;;;;;;4989540;28;20545;-76
2022/11/10 13:34:54;;;;;;;8.13;1.70;;;17.00;99.90;;;;;;4988696;28;20502;-76
2022/11/10 13:37:45;;;;;;;5.30;1.30;;;17.10;99.90;;;;;;4987582;28;20482;-76
2022/11/10 13:40:28;;;;;;;5.13;1.57;;;17.10;99.90;;;;;;4988913;28;20456;-79
2022/11/10 13:43:22;;;;;;;4.73;1.30;;;17.10;99.90;;;;;;4988330;28;21282;-75
2022/11/10 13:45:49;;;;;;;6.00;2.07;;;17.00;99.90;;;;;;4987593;28;20811;-76
2022/11/10 13:48:32;;;;;;;3.00;1.40;;;17.00;99.90;;;;;;4989148;28;20455;-75
2022/11/10 13:51:07;;;;;;;4.47;1.70;;;16.90;99.90;;;;;;4988904;28;21031;-76
2022/11/10 13:53:53;;;;;;;5.47;1.80;;;16.80;99.90;;;;;;4989269;28;20435;-77
2022/11/10 13:56:36;;;;;;;7.07;1.40;;;16.80;99.90;;;;;;4988943;28;20855;-76
2022/11/10 13:59:17;;;;;;;5.00;1.40;;;16.80;99.90;;;;;;4989254;28;20968;-76
2022/11/10 14:01:44;;;;;;;4.23;1.60;;;16.80;99.90;;;;;;4988788;28;20255;-75
2022/11/10 14:04:39;;;;;;;4.50;1.80;;;16.90;99.90;;;;;;4987821;28;20978;-75
2022/11/10 14:07:13;;;;;;;5.43;1.47;;;16.80;99.90;;;;;;4989624;28;20463;-76
2022/11/10 14:09:43;;;;;;;4.40;1.57;;;16.70;99.90;;;;;;4989552;28;20645;-78
2022/11/10 14:12:21;;;;;;;6.40;1.60;;;16.70;99.90;;;;;;4989650;28;20493;-76
2022/11/10 14:14:54;;;;;;;4.07;1.43;;;16.60;99.90;;;;;;4988779;28;20502;-77
2022/11/10 14:17:26;;;;;;;8.60;2.10;;;16.60;99.90;;;;;;4991895;28;20440;-81
2022/11/10 14:19:55;;;;;;;2.93;1.70;;;16.70;99.90;;;;;;4994433;28;20464;-80
2022/11/10 14:22:27;;;;;;;4.10;1.97;;;16.60;99.90;;;;;;4995339;28;20583;-81
2022/11/10 14:25:00;;;;;;;3.63;1.60;;;16.60;99.90;;;;;;4994715;28;20442;-82
2022/11/10 14:27:28;;;;;;;5.53;2.03;;;16.60;99.90;;;;;;4994787;28;20916;-81
2022/11/10 14:30:20;;;;;;;5.53;2.37;;;16.60;99.90;;;;;;4995318;28;20455;-81
2022/11/10 14:32:55;;;;;;;5.27;2.00;;;16.60;99.90;;;;;;4996018;28;20444;-81
2022/11/10 14:35:26;;;;;;;3.60;1.80;;;16.60;99.90;;;;;;4993621;28;20489;-81
2022/11/10 14:37:58;;;;;;;10.00;2.83;;;16.70;99.90;;;;;;4991880;28;20835;-82
2022/11/10 14:40:27;;;;;;;5.00;1.90;;;16.70;99.90;;;;;;4992248;28;20447;-81
2022/11/10 14:42:54;;;;;;;2.60;1.73;;;16.70;99.90;;;;;;5001565;28;20472;-81
2022/11/10 14:45:22;;;;;;;10.43;2.37;;;16.60;99.90;;;;;;4999206;28;20979;-80
2022/11/10 14:47:53;;;;;;;6.13;2.10;;;16.60;99.90;;;;;;4996422;28;20979;-82
2022/11/10 14:50:24;;;;;;;8.77;2.60;;;16.70;99.90;;;;;;4997004;28;20466;-81
2022/11/10 14:52:54;;;;;;;6.07;1.87;;;16.70;99.90;;;;;;4996150;28;21047;-81
2022/11/10 14:55:23;;;;;;;6.50;1.70;;;16.70;99.90;;;;;;4994054;28;20499;-82
2022/11/10 14:57:53;;;;;;;7.23;1.80;;;16.70;99.90;;;;;;4993150;28;20832;-81
2022/11/10 15:00:25;;;;;;;4.67;1.60;;;16.60;99.90;;;;;;4993074;28;20481;-81
2022/11/10 15:02:54;;;;;;;6.90;2.17;;;16.60;99.90;;;;;;4993076;28;20455;-81
2022/11/10 15:05:21;;;;;;;5.47;2.00;;;16.50;99.90;;;;;;4990856;28;20527;-81
2022/11/10 15:07:53;;;;;;;3.40;1.70;;;16.50;99.90;;;;;;4991814;28;20956;-82
2022/11/10 15:10:22;;;;;;;3.10;1.53;;;16.40;99.90;;;;;;4992133;28;20448;-81
2022/11/10 15:13:00;;;;;;;3.33;1.80;;;16.30;99.90;;;;;;4991706;28;20952;-81
2022/11/10 15:15:27;;;;;;;5.80;1.70;;;16.20;99.90;;;;;;4990883;28;20865;-81
2022/11/10 15:17:54;;;;;;;4.83;1.90;;;16.20;99.90;;;;;;4992029;28;20456;-81
2022/11/10 15:20:36;;;;;;;4.80;1.53;;;16.10;99.90;;;;;;4992048;28;20471;-81
2022/11/10 15:23:12;;;;;;;6.00;1.80;;;16.00;99.90;;;;;;4992602;28;20987;-81
2022/11/10 15:25:40;;;;;;;5.43;2.10;;;15.90;99.90;;;;;;4992411;28;20455;-81
2022/11/10 15:28:21;;;;;;;4.00;1.70;;;15.80;99.90;;;;;;4992516;28;20462;-81
2022/11/10 15:30:52;;;;;;;3.73;1.60;;;15.70;99.90;;;;;;4997894;28;20480;-81
2022/11/10 15:33:25;;;;;;;4.43;1.70;;;15.60;99.90;;;;;;4997679;28;20460;-81
2022/11/10 15:35:53;;;;;;;5.70;2.13;;;15.60;99.90;;;;;;4996297;28;20506;-82
2022/11/10 15:38:31;;;;;;;11.00;2.00;;;15.50;99.90;;;;;;4996746;28;20542;-81
2022/11/10 15:41:15;;;;;;;9.07;2.00;;;15.30;99.90;;;;;;4996772;28;20576;-81
2022/11/10 15:43:42;;;;;;;5.30;2.27;;;15.30;99.90;;;;;;4995635;28;20459;-81
2022/11/10 15:46:17;;;;;;;8.30;3.10;;;15.20;99.90;;;;;;4994550;28;20462;-75
2022/11/10 15:48:46;;;;;;;5.77;1.70;;;15.10;99.90;;;;;;4987439;28;20459;-76
2022/11/10 15:51:15;;;;;;;5.67;2.03;;;15.00;99.90;;;;;;4987464;28;20500;-77
2022/11/10 15:53:46;;;;;;;8.27;2.10;;;14.90;99.90;;;;;;4987108;28;20472;-76
2022/11/10 15:56:15;;;;;;;5.27;2.03;;;14.90;99.90;;;;;;4986444;28;20480;-76
2022/11/10 15:58:45;;;;;;;4.90;1.70;;;14.80;99.90;;;;;;4987706;28;20514;-76
2022/11/10 16:01:12;;;;;;;6.67;1.77;;;14.70;99.90;;;;;;4987214;28;20484;-76
2022/11/10 16:03:39;;;;;;;3.37;1.20;;;14.60;99.90;;;;;;4987545;28;20466;-75
2022/11/10 16:06:07;;;;;;;4.80;1.57;;;14.50;99.90;;;;;;4986390;28;20463;-75
2022/11/10 16:08:34;;;;;;;6.33;1.70;;;14.40;99.90;;;;;;4986900;28;20451;-79
2022/11/10 16:11:02;;;;;;;3.67;1.70;;;14.40;99.90;;;;;;4987290;28;20490;-75
2022/11/10 16:13:31;;;;;;;5.57;2.03;;;14.30;99.90;;;;;;4986582;28;20513;-75
2022/11/10 16:15:59;;;;;;;9.23;1.93;;;14.30;99.90;;;;;;4984984;28;20499;-77
2022/11/10 16:18:28;;;;;;;6.83;1.90;;;14.20;99.90;;;;;;4986258;28;20479;-77
2022/11/10 16:20:54;;;;;;;6.37;2.03;;;14.20;99.90;;;;;;4986167;28;20603;-78
2022/11/10 16:23:22;;;;;;;9.53;2.20;;;14.10;99.90;;;;;;4986949;28;20466;-76
2022/11/10 16:25:51;;;;;;;4.43;1.80;;;14.00;99.90;;;;;;4986403;28;20459;-76
2022/11/10 16:28:22;;;;;;;9.03;2.00;;;14.00;99.90;;;;;;4990963;28;20463;-76
2022/11/10 16:30:49;;;;;;;10.97;2.20;;;13.90;99.90;;;;;;4991236;28;20518;-76
2022/11/10 16:33:18;;;;;;;3.80;2.03;;;13.80;99.90;;;;;;4991112;28;20463;-75
2022/11/10 16:35:48;;;;;;;13.40;3.03;;;13.70;99.90;;;;;;4989787;28;20495;-75
2022/11/10 16:38:19;;;;;;;8.17;2.40;;;13.70;99.90;;;;;;4990864;28;20466;-76
2022/11/10 16:40:48;;;;;;;8.10;4.17;;;13.60;99.90;;;;;;4991176;28;20479;-75
2022/11/10 16:43:17;;;;;;;11.90;7.33;;;13.60;99.90;;;;;;4990654;28;21189;-76
2022/11/10 16:45:46;;;;;;;7.40;6.17;;;13.50;99.90;;;;;;4990005;28;20470;-76
2022/11/10 16:48:16;;;;;;;13.37;6.13;;;13.50;99.90;;;;;;4990656;28;20470;-77
2022/11/10 16:50:45;;;;;;;11.20;5.23;;;13.40;99.90;;;;;;4990162;28;20970;-77
2022/11/10 16:53:16;;;;;;;10.47;5.47;;;13.30;99.90;;;;;;4990644;28;20482;-76
2022/11/10 16:55:43;;;;;;;11.70;5.73;;;13.20;99.90;;;;;;4989735;28;20484;-76
2022/11/10 16:58:10;;;;;;;8.40;5.63;;;13.20;99.90;;;;;;4990691;28;20459;-76
2022/11/10 17:00:39;;;;;;;12.20;7.07;;;13.10;99.90;;;;;;4990269;28;21073;-76
2022/11/10 17:03:14;;;;;;;39.43;20.20;;;13.00;99.90;;;;;;4990713;28;20506;-77
2022/11/10 17:05:41;;;;;;;23.77;10.13;;;12.90;99.90;;;;;;4990058;28;20459;-76
2022/11/10 17:08:15;;;;;;;12.70;8.50;;;12.90;99.90;;;;;;4990821;28;20566;-77
2022/11/10 17:10:42;;;;;;;16.97;10.40;;;12.90;99.90;;;;;;4991158;28;20477;-77
2022/11/10 17:13:10;;;;;;;18.13;9.60;;;12.90;99.90;;;;;;4990332;28;20467;-78
2022/11/10 17:15:37;;;;;;;12.80;6.70;;;12.80;99.90;;;;;;4989851;28;20510;-77
2022/11/10 17:18:07;;;;;;;12.10;6.73;;;12.70;99.90;;;;;;4990383;28;20871;-81
2022/11/10 17:20:36;;;;;;;11.03;4.87;;;12.70;99.90;;;;;;4990543;28;20474;-82
2022/11/10 17:23:04;;;;;;;10.97;6.03;;;12.60;99.90;;;;;;4990599;28;20466;-80
2022/11/10 17:25:34;;;;;;;10.10;4.37;;;12.60;99.90;;;;;;4989810;28;20491;-75
2022/11/10 17:28:02;;;;;;;10.17;7.93;;;12.50;99.90;;;;;;4990735;28;20459;-76
2022/11/10 17:30:29;;;;;;;17.37;9.13;;;12.50;99.90;;;;;;4990304;28;20494;-75
2022/11/10 17:32:57;;;;;;;14.33;8.90;;;12.40;99.90;;;;;;4990926;28;20463;-75
2022/11/10 17:35:25;;;;;;;17.90;12.10;;;12.30;99.90;;;;;;4989906;28;20459;-76
2022/11/10 17:37:55;;;;;;;16.43;12.77;;;12.30;99.90;;;;;;4989353;28;20551;-73
2022/11/10 17:40:24;;;;;;;15.60;9.90;;;12.20;99.90;;;;;;4990326;28;20578;-75
2022/11/10 17:42:51;;;;;;;14.17;8.30;;;12.20;99.90;;;;;;4990637;28;20459;-78
2022/11/10 17:45:20;;;;;;;11.47;7.03;;;12.10;99.90;;;;;;4990062;28;20466;-76
2022/11/10 17:47:47;;;;;;;15.27;7.93;;;12.10;99.90;;;;;;4989402;28;20456;-73
2022/11/10 17:50:15;;;;;;;11.90;7.60;;;12.10;99.90;;;;;;4988547;28;20463;-72
2022/11/10 17:52:43;;;;;;;14.97;6.57;;;12.00;99.90;;;;;;4988224;28;20992;-72
2022/11/10 17:55:17;;;;;;;13.23;5.73;;;11.90;99.90;;;;;;4988124;28;20555;-71
2022/11/10 17:57:44;;;;;;;9.17;5.80;;;11.80;99.90;;;;;;4988800;28;20491;-72
2022/11/10 18:00:12;;;;;;;10.70;8.37;;;11.80;99.90;;;;;;4988377;28;20491;-71
2022/11/10 18:02:38;;;;;;;19.57;10.10;;;11.70;99.90;;;;;;4988052;28;21023;-72